Time;durP1;ratioP1;P1;durP2;ratioP2;P2;SDS_P1;SDS_P2;PMS_P1;PMS_P2;Temp;Humidity;BMP_temperature;BMP_pressure;BME280_temperature;BME280_humidity;BME280_pressure;Samples;Min_cycle;Max_cycle;Signal;HPM_P1;HPM_P2
2023/10/03 00:00:32;;;;;;;12.45;5.40;;;;;;;17.04;87.98;100897.41;2098723;28;20021;-75
2023/10/03 00:01:36;;;;;;;13.40;5.35;;;;;;;17.03;88.27;100884.97;2081832;28;20034;-75
2023/10/03 00:02:38;;;;;;;14.50;5.55;;;;;;;17.02;88.38;100877.91;2094153;28;20041;-75
2023/10/03 00:03:43;;;;;;;13.05;5.68;;;;;;;17.02;88.43;100877.91;2115781;28;20031;-75
2023/10/03 00:04:45;;;;;;;15.45;5.40;;;;;;;17.02;88.26;100878.72;2098882;28;20041;-75
2023/10/03 00:05:47;;;;;;;14.52;5.20;;;;;;;17.02;88.42;100877.91;2090866;28;20037;-75
2023/10/03 00:06:49;;;;;;;18.58;5.70;;;;;;;17.00;88.40;100869.28;2098959;28;20113;-75
2023/10/03 00:07:52;;;;;;;13.55;5.38;;;;;;;17.00;88.63;100869.28;2090373;28;20018;-76
2023/10/03 00:08:54;;;;;;;16.33;5.78;;;;;;;17.00;88.44;100878.25;2082982;28;20057;-76
2023/10/03 00:10:00;;;;;;;15.32;5.38;;;;;;;17.00;88.66;100874.72;2090950;28;20823;-75
2023/10/03 00:11:02;;;;;;;16.70;5.00;;;;;;;16.99;88.54;100873.94;2099240;28;20846;-76
2023/10/03 00:12:06;;;;;;;18.48;5.70;;;;;;;16.98;88.78;100871.50;2099615;28;20037;-76
2023/10/03 00:13:11;;;;;;;17.15;5.35;;;;;;;16.98;88.60;100866.06;2099351;28;20807;-76
2023/10/03 00:14:13;;;;;;;14.20;5.57;;;;;;;16.98;88.73;100866.06;2099176;28;20036;-75
2023/10/03 00:15:16;;;;;;;13.77;5.35;;;;;;;16.98;88.74;100863.38;2098903;28;20067;-75
2023/10/03 00:16:21;;;;;;;14.20;4.97;;;;;;;16.99;88.64;100856.81;2099148;28;20021;-76
2023/10/03 00:17:25;;;;;;;18.35;5.57;;;;;;;16.99;88.67;100862.25;2106750;28;20029;-75
2023/10/03 00:18:29;;;;;;;15.68;5.50;;;;;;;16.99;88.64;100862.25;2107382;28;20890;-75
2023/10/03 00:19:30;;;;;;;15.38;5.40;;;;;;;16.98;88.66;100860.66;2107105;28;20023;-75
2023/10/03 00:20:32;;;;;;;14.13;5.25;;;;;;;16.99;88.64;100865.78;2098356;28;20037;-75
2023/10/03 00:21:35;;;;;;;14.18;5.40;;;;;;;16.99;88.74;100867.66;2098693;28;20025;-75
2023/10/03 00:22:41;;;;;;;16.48;5.47;;;;;;;17.00;88.63;100872.81;2098512;28;20037;-75
2023/10/03 00:23:45;;;;;;;15.32;5.65;;;;;;;17.01;88.84;100873.59;2090678;28;20037;-75
2023/10/03 00:24:51;;;;;;;12.38;5.43;;;;;;;17.00;88.74;100864.66;2099553;28;20114;-75
2023/10/03 00:25:56;;;;;;;17.40;6.03;;;;;;;17.02;88.56;100867.03;2090503;28;20187;-75
2023/10/03 00:26:59;;;;;;;16.63;5.78;;;;;;;17.02;88.62;100872.47;2091326;28;20030;-75
2023/10/03 00:28:01;;;;;;;13.90;4.65;;;;;;;17.02;88.50;100877.91;2090455;28;20115;-75
2023/10/03 00:29:09;;;;;;;15.38;5.00;;;;;;;17.02;88.62;100873.28;2090657;28;20026;-75
2023/10/03 00:30:14;;;;;;;12.65;4.72;;;;;;;17.02;88.59;100870.56;2099540;28;20032;-75
2023/10/03 00:31:19;;;;;;;20.52;5.85;;;;;;;17.03;88.51;100868.66;2083063;28;20030;-75
2023/10/03 00:32:24;;;;;;;17.10;6.03;;;;;;;17.05;88.69;100866.41;2084150;28;20042;-75
2023/10/03 00:33:26;;;;;;;14.45;5.72;;;;;;;17.05;88.57;100860.97;2090317;28;20931;-75
2023/10/03 00:34:28;;;;;;;16.08;5.53;;;;;;;17.05;88.43;100863.69;2082260;28;20042;-76
2023/10/03 00:35:36;;;;;;;11.82;5.20;;;;;;;17.06;88.43;100854.47;2082614;28;20128;-76
2023/10/03 00:36:37;;;;;;;16.00;5.80;;;;;;;17.06;88.36;100854.47;2083539;28;20030;-75
2023/10/03 00:37:44;;;;;;;14.18;5.15;;;;;;;17.06;88.32;100857.16;2090553;28;20223;-76
2023/10/03 00:38:46;;;;;;;15.43;5.30;;;;;;;17.05;88.39;100856.34;2090846;28;20072;-77
2023/10/03 00:39:48;;;;;;;16.98;5.47;;;;;;;17.05;88.12;100858.25;2090492;28;20030;-76
2023/10/03 00:40:50;;;;;;;15.20;5.45;;;;;;;17.05;88.38;100863.69;2082069;28;20078;-77
2023/10/03 00:41:55;;;;;;;13.23;4.90;;;;;;;17.04;88.32;100857.47;2082662;28;20864;-77
2023/10/03 00:42:59;;;;;;;12.90;5.47;;;;;;;17.03;88.31;100846.94;2090753;28;21000;-76
2023/10/03 00:44:04;;;;;;;17.00;5.03;;;;;;;17.03;88.27;100850.44;2090808;28;20030;-76
2023/10/03 00:45:10;;;;;;;20.73;5.57;;;;;;;17.05;88.14;100859.06;2074898;28;20989;-76
2023/10/03 00:46:11;;;;;;;13.90;5.25;;;;;;;17.05;88.24;100858.25;2083790;28;20073;-76
2023/10/03 00:47:13;;;;;;;13.13;4.93;;;;;;;17.06;88.32;100849.81;2098776;28;20040;-76
2023/10/03 00:48:18;;;;;;;11.15;5.07;;;;;;;17.05;88.29;100852.84;2103331;28;20017;-76
2023/10/03 00:49:20;;;;;;;14.60;5.80;;;;;;;17.08;87.97;100854.91;2098539;28;20036;-77
2023/10/03 00:50:27;;;;;;;13.02;5.32;;;;;;;17.07;88.15;100853.31;2082399;28;20108;-77
2023/10/03 00:51:29;;;;;;;15.02;5.10;;;;;;;17.10;88.12;100853.50;2092164;28;20029;-77
2023/10/03 00:52:31;;;;;;;12.98;5.30;;;;;;;17.10;88.09;100848.06;2098823;28;20047;-76
2023/10/03 00:53:36;;;;;;;16.50;4.97;;;;;;;17.11;87.92;100844.22;2098643;28;20860;-77
2023/10/03 00:54:37;;;;;;;15.50;5.60;;;;;;;17.11;87.99;100844.22;2097434;28;20087;-76
2023/10/03 00:55:43;;;;;;;10.90;5.05;;;;;;;17.11;87.94;100838.00;2082032;28;20104;-77
2023/10/03 00:56:49;;;;;;;14.07;5.10;;;;;;;17.11;87.76;100843.44;2084500;28;20030;-76
2023/10/03 00:58:06;;;;;;;11.27;5.10;;;;;;;17.09;87.73;100834.81;2082201;28;20152;-76
2023/10/03 00:59:08;;;;;;;12.48;5.15;;;;;;;17.08;87.84;100844.06;2086110;28;20030;-76
2023/10/03 01:00:16;;;;;;;13.43;5.38;;;;;;;17.07;87.86;100843.25;2099046;28;20025;-76
2023/10/03 01:01:21;;;;;;;13.68;5.78;;;;;;;17.04;87.89;100838.44;2106478;28;20032;-76
2023/10/03 01:02:25;;;;;;;12.43;5.00;;;;;;;17.03;87.90;100836.88;2106923;28;20087;-76
2023/10/03 01:03:30;;;;;;;11.32;4.97;;;;;;;17.03;88.12;100836.06;2097008;28;20160;-76
2023/10/03 01:04:34;;;;;;;12.80;4.88;;;;;;;17.01;88.03;100832.84;2091607;28;20037;-76
2023/10/03 01:05:39;;;;;;;17.02;5.30;;;;;;;17.00;88.17;100828.53;2106813;28;20075;-76
2023/10/03 01:06:43;;;;;;;18.33;5.85;;;;;;;17.00;88.27;100832.06;2107222;28;20037;-76
2023/10/03 01:07:49;;;;;;;13.27;5.03;;;;;;;17.00;88.17;100825.84;2098376;28;20029;-76
2023/10/03 01:08:51;;;;;;;14.48;5.10;;;;;;;17.00;88.28;100820.41;2099925;28;20032;-76
2023/10/03 01:09:53;;;;;;;13.55;5.15;;;;;;;16.96;88.23;100820.22;2115003;28;20885;-76
2023/10/03 01:10:55;;;;;;;11.98;5.03;;;;;;;16.95;88.20;100817.81;2107591;28;20021;-76
2023/10/03 01:11:57;;;;;;;14.52;5.25;;;;;;;16.94;88.57;100821.66;2098165;28;20036;-76
2023/10/03 01:13:10;;;;;;;14.80;5.18;;;;;;;16.91;88.34;100821.16;2074424;28;20763;-76
2023/10/03 01:14:13;;;;;;;13.60;5.10;;;;;;;16.90;88.75;100816.84;2087029;28;20018;-76
2023/10/03 01:15:22;;;;;;;14.73;5.82;;;;;;;16.88;88.90;100821.78;2090722;28;20974;-76
2023/10/03 01:16:33;;;;;;;12.88;5.70;;;;;;;16.88;88.72;100821.00;2100008;28;20032;-77
2023/10/03 01:17:37;;;;;;;15.40;5.60;;;;;;;16.87;89.00;100811.25;2106626;28;20099;-76
2023/10/03 01:18:41;;;;;;;15.40;5.03;;;;;;;16.86;89.00;100815.84;2103906;28;20028;-76
2023/10/03 01:19:44;;;;;;;13.45;5.28;;;;;;;16.87;88.98;100816.69;2106341;28;20151;-77
2023/10/03 01:20:51;;;;;;;13.35;5.35;;;;;;;16.85;88.77;100808.03;2098927;28;20027;-77
2023/10/03 01:21:58;;;;;;;12.02;5.18;;;;;;;16.86;89.06;100821.28;2099782;28;20032;-76
2023/10/03 01:23:06;;;;;;;14.65;4.95;;;;;;;16.86;88.97;100815.06;2090867;28;20026;-77
2023/10/03 01:24:29;;;;;;;15.68;5.72;;;;;;;16.86;88.82;100805.00;2092462;28;20083;-76
2023/10/03 01:25:34;;;;;;;14.43;5.32;;;;;;;16.85;89.07;100821.63;2100093;28;20028;-76
2023/10/03 01:26:37;;;;;;;16.33;6.13;;;;;;;16.87;88.76;100816.69;2090768;28;20036;-76
2023/10/03 01:27:39;;;;;;;20.02;5.22;;;;;;;16.87;89.00;100813.97;2090458;28;20045;-76
2023/10/03 01:28:40;;;;;;;14.43;5.40;;;;;;;16.86;88.99;100813.13;2098578;28;20127;-76
2023/10/03 01:29:44;;;;;;;14.57;5.22;;;;;;;16.85;89.00;100814.25;2098434;28;20041;-76
2023/10/03 01:30:48;;;;;;;17.85;5.78;;;;;;;16.84;88.99;100809.97;2098646;28;20878;-76
2023/10/03 01:31:49;;;;;;;14.70;5.68;;;;;;;16.81;89.28;100802.44;2082274;28;20069;-76
2023/10/03 01:32:59;;;;;;;22.50;5.72;;;;;;;16.80;89.13;100814.44;2091666;28;20018;-76
2023/10/03 01:34:05;;;;;;;14.52;5.50;;;;;;;16.78;89.39;100803.06;2106785;28;20025;-76
2023/10/03 01:35:11;;;;;;;19.80;5.82;;;;;;;16.74;89.49;100791.22;2106539;28;20083;-76
2023/10/03 01:36:12;;;;;;;20.15;5.82;;;;;;;16.78;89.73;100796.84;2106620;28;20024;-76
2023/10/03 01:37:14;;;;;;;14.20;5.70;;;;;;;16.77;89.52;100798.75;2098040;28;20021;-76
2023/10/03 01:38:16;;;;;;;18.27;5.25;;;;;;;16.75;89.65;100802.88;2082303;28;20860;-76
2023/10/03 01:39:19;;;;;;;15.45;5.10;;;;;;;16.74;89.62;100802.06;2090030;28;20037;-76
2023/10/03 01:40:22;;;;;;;13.20;4.90;;;;;;;16.73;89.64;100795.03;2089854;28;20029;-76
2023/10/03 01:41:23;;;;;;;18.23;5.40;;;;;;;16.73;89.84;100797.75;2074397;28;20049;-76
2023/10/03 01:42:25;;;;;;;14.25;5.40;;;;;;;16.72;89.89;100793.44;2082783;28;20029;-76
2023/10/03 01:43:27;;;;;;;16.40;6.13;;;;;;;16.72;89.71;100796.16;2083242;28;20032;-76
2023/10/03 01:44:30;;;;;;;14.70;5.00;;;;;;;16.72;89.92;100788.00;2100538;28;20040;-76
2023/10/03 01:45:35;;;;;;;14.85;5.10;;;;;;;16.74;89.93;100795.81;2107647;28;20039;-76
2023/10/03 01:46:39;;;;;;;14.65;5.15;;;;;;;16.73;90.06;100795.03;2100516;28;20080;-76
2023/10/03 01:47:48;;;;;;;15.38;5.60;;;;;;;16.73;89.77;100789.59;2091870;28;20103;-75
2023/10/03 01:48:52;;;;;;;;;;;;;;;16.75;89.97;100784.69;2098998;28;20020;-75
2023/10/03 01:49:54;;;;;;;14.10;5.10;;;;;;;16.76;89.77;100789.00;2091991;28;19916;-75
2023/10/03 01:50:58;;;;;;;12.57;4.85;;;;;;;16.75;89.88;100784.69;2100549;28;20066;-76
2023/10/03 01:52:00;;;;;;;12.63;4.97;;;;;;;16.76;89.68;100783.56;2091428;28;20096;-78
2023/10/03 01:53:02;;;;;;;14.52;5.30;;;;;;;16.76;89.68;100778.13;2100526;27;20047;-76
2023/10/03 01:54:06;;;;;;;15.65;5.20;;;;;;;16.74;89.85;100780.34;2113457;28;20113;-75
2023/10/03 01:55:12;;;;;;;13.40;5.40;;;;;;;16.75;89.63;100781.97;2100690;28;20029;-75
2023/10/03 01:56:14;;;;;;;15.63;4.93;;;;;;;16.72;89.86;100777.13;2108504;28;20870;-75
2023/10/03 01:57:16;;;;;;;14.63;5.03;;;;;;;16.71;89.76;100775.53;2099518;28;20033;-75
2023/10/03 01:58:23;;;;;;;14.18;5.20;;;;;;;16.71;89.92;100775.53;2099878;28;20037;-75
2023/10/03 01:59:26;;;;;;;12.75;4.93;;;;;;;16.69;90.12;100777.78;2109748;27;20068;-76
2023/10/03 02:00:30;;;;;;;12.98;5.32;;;;;;;16.68;90.12;100770.75;2099537;28;20068;-77
2023/10/03 02:01:37;;;;;;;12.63;4.85;;;;;;;16.68;90.03;100774.25;2092328;28;20836;-76
2023/10/03 02:02:39;;;;;;;15.10;6.18;;;;;;;16.66;89.90;100765.63;2092307;28;20300;-75
2023/10/03 02:03:40;;;;;;;13.15;5.03;;;;;;;16.69;90.01;100766.91;2081854;28;20026;-75
2023/10/03 02:04:42;;;;;;;12.18;5.10;;;;;;;16.69;90.01;100766.91;2083591;28;20050;-76
2023/10/03 02:05:44;;;;;;;10.38;4.95;;;;;;;16.69;89.88;100766.91;2107865;28;20024;-76
2023/10/03 02:06:45;;;;;;;13.77;5.30;;;;;;;16.69;89.89;100761.47;2099603;28;20177;-76
2023/10/03 02:07:47;;;;;;;15.38;5.55;;;;;;;16.67;89.86;100755.56;2091895;28;20026;-76
2023/10/03 02:08:50;;;;;;;10.18;5.03;;;;;;;16.66;89.98;100759.38;2091269;28;20077;-75
2023/10/03 02:09:53;;;;;;;11.75;5.38;;;;;;;16.62;90.10;100761.94;2083487;28;20030;-75
2023/10/03 02:10:55;;;;;;;12.68;5.00;;;;;;;16.60;90.41;100747.88;2099220;28;20037;-75
2023/10/03 02:11:59;;;;;;;12.15;4.82;;;;;;;16.59;90.38;100751.69;2083386;28;20769;-76
2023/10/03 02:13:04;;;;;;;12.80;5.10;;;;;;;16.57;90.33;100751.22;2092057;28;20036;-76
2023/10/03 02:14:08;;;;;;;13.02;5.85;;;;;;;16.52;90.48;100739.69;2100568;28;20028;-76
2023/10/03 02:15:11;;;;;;;13.45;5.10;;;;;;;16.55;90.40;100749.91;2099781;28;20147;-76
2023/10/03 02:16:13;;;;;;;14.57;6.10;;;;;;;16.52;90.41;100747.81;2091304;28;20133;-76
2023/10/03 02:17:16;;;;;;;11.20;4.97;;;;;;;16.52;90.80;100748.66;2091610;28;20136;-76
2023/10/03 02:18:19;;;;;;;11.65;4.90;;;;;;;16.53;90.91;100744.03;2083372;28;20042;-76
2023/10/03 02:19:22;;;;;;;11.95;5.55;;;;;;;16.55;90.95;100752.63;2082576;28;20065;-75
2023/10/03 02:20:26;;;;;;;13.30;5.20;;;;;;;16.55;90.79;100744.50;2083587;28;20859;-74
2023/10/03 02:21:28;;;;;;;14.77;5.20;;;;;;;16.55;90.96;100741.78;2083390;28;20854;-75
2023/10/03 02:22:32;;;;;;;10.60;5.07;;;;;;;16.55;90.80;100749.91;2091862;28;20036;-74
2023/10/03 02:23:36;;;;;;;15.07;4.85;;;;;;;16.54;90.91;100748.31;2099914;28;20084;-74
2023/10/03 02:24:38;;;;;;;12.07;5.50;;;;;;;16.53;90.88;100752.16;2105824;28;20106;-74
2023/10/03 02:25:40;;;;;;;14.75;5.20;;;;;;;16.54;90.98;100742.91;2091002;28;20033;-74
2023/10/03 02:26:45;;;;;;;9.85;5.63;;;;;;;16.52;90.79;100743.22;2099254;28;20111;-75
2023/10/03 02:27:49;;;;;;;14.43;5.28;;;;;;;16.51;90.94;100751.66;2091667;28;20104;-75
2023/10/03 02:28:53;;;;;;;12.57;5.13;;;;;;;16.52;90.88;100747.81;2093790;28;20132;-75
2023/10/03 02:29:58;;;;;;;11.63;4.97;;;;;;;16.52;91.13;100742.41;2099518;28;20143;-76
2023/10/03 02:31:02;;;;;;;12.90;4.88;;;;;;;16.53;90.85;100738.59;2100673;28;20080;-75
2023/10/03 02:32:08;;;;;;;13.27;5.72;;;;;;;16.51;91.15;100743.53;2100224;28;20029;-75
2023/10/03 02:33:12;;;;;;;13.30;5.63;;;;;;;16.52;91.13;100739.69;2083848;28;20148;-74
2023/10/03 02:34:17;;;;;;;12.85;5.22;;;;;;;16.53;90.74;100742.09;2090906;28;20042;-75
2023/10/03 02:35:21;;;;;;;12.25;5.10;;;;;;;16.51;90.82;100735.38;2083715;28;20126;-75
2023/10/03 02:36:22;;;;;;;10.55;5.10;;;;;;;16.51;91.09;100743.53;2091952;28;20835;-75
2023/10/03 02:37:24;;;;;;;11.38;4.78;;;;;;;16.49;91.04;100737.59;2083306;28;20033;-75
2023/10/03 02:38:29;;;;;;;11.38;5.07;;;;;;;16.49;91.26;100735.72;2082882;28;20089;-75
2023/10/03 02:39:38;;;;;;;11.55;5.38;;;;;;;16.49;91.18;100729.44;2084037;28;20034;-75
2023/10/03 02:40:42;;;;;;;13.38;5.43;;;;;;;16.47;91.11;100729.78;2092413;28;20810;-74
2023/10/03 02:41:47;;;;;;;14.38;5.40;;;;;;;16.44;91.23;100720.34;2084271;28;20026;-75
2023/10/03 02:42:54;;;;;;;13.48;5.28;;;;;;;16.45;91.27;100724.66;2091541;28;20131;-75
2023/10/03 02:43:57;;;;;;;12.20;5.55;;;;;;;16.44;91.44;100723.06;2092619;28;20044;-74
2023/10/03 02:45:03;;;;;;;12.48;5.50;;;;;;;16.47;91.43;100724.34;2099953;28;20045;-74
2023/10/03 02:46:07;;;;;;;14.15;5.60;;;;;;;16.46;91.47;100725.47;2082967;28;20152;-74
2023/10/03 02:47:13;;;;;;;14.85;5.70;;;;;;;16.46;91.51;100720.06;2084197;28;20730;-73
2023/10/03 02:48:17;;;;;;;14.35;5.50;;;;;;;16.45;91.35;100719.22;2091721;28;20029;-74
2023/10/03 02:49:21;;;;;;;12.18;5.18;;;;;;;16.46;91.51;100717.34;2097214;28;20099;-74
2023/10/03 02:50:23;;;;;;;12.90;5.07;;;;;;;16.45;91.20;100713.78;2099750;28;20027;-74
2023/10/03 02:51:25;;;;;;;9.43;5.13;;;;;;;16.45;91.62;100713.78;2099689;28;20131;-74
2023/10/03 02:52:28;;;;;;;10.20;4.70;;;;;;;16.45;91.44;100713.00;2083007;28;20040;-74
2023/10/03 02:53:30;;;;;;;12.55;5.30;;;;;;;16.45;91.44;100713.78;2082959;28;20033;-74
2023/10/03 02:54:39;;;;;;;15.45;5.88;;;;;;;16.47;91.56;100710.00;2090663;28;20876;-74
2023/10/03 02:55:44;;;;;;;10.40;5.03;;;;;;;16.47;91.39;100707.28;2100238;28;20022;-74
2023/10/03 02:56:48;;;;;;;12.38;6.03;;;;;;;16.49;91.36;100705.03;2091218;28;20144;-75
2023/10/03 02:57:54;;;;;;;12.27;4.95;;;;;;;16.48;91.31;100706.16;2092336;28;20029;-74
2023/10/03 02:58:56;;;;;;;13.25;5.20;;;;;;;16.50;91.31;100709.38;2091893;28;20025;-74
2023/10/03 02:59:59;;;;;;;11.85;4.80;;;;;;;16.52;91.26;100707.13;2099385;28;20025;-74
2023/10/03 03:01:01;;;;;;;13.80;5.32;;;;;;;16.53;90.90;100703.31;2099203;28;20736;-74
2023/10/03 03:02:05;;;;;;;10.65;4.80;;;;;;;16.52;90.99;100704.41;2091018;28;20961;-74
2023/10/03 03:03:09;;;;;;;16.35;5.68;;;;;;;16.54;90.81;100705.69;2091530;28;20063;-74
2023/10/03 03:04:17;;;;;;;11.30;5.32;;;;;;;16.54;90.75;100694.84;2090515;28;20026;-74
2023/10/03 03:05:22;;;;;;;14.45;5.45;;;;;;;16.55;90.73;100692.91;2099315;28;20155;-75
2023/10/03 03:06:33;;;;;;;11.07;5.10;;;;;;;16.56;90.88;100692.63;2083617;28;20148;-74
2023/10/03 03:07:35;;;;;;;11.88;4.90;;;;;;;16.57;90.50;100696.13;2092572;28;20136;-74
2023/10/03 03:08:39;;;;;;;15.43;5.40;;;;;;;16.56;90.54;100689.09;2091052;28;20093;-74
2023/10/03 03:09:44;;;;;;;12.23;5.53;;;;;;;16.57;90.43;100688.78;2091978;28;20029;-74
2023/10/03 03:10:55;;;;;;;13.20;5.18;;;;;;;16.58;90.42;100690.41;2099601;28;20029;-74
2023/10/03 03:12:00;;;;;;;10.13;4.90;;;;;;;16.57;90.54;100687.97;2083947;28;20837;-74
2023/10/03 03:13:08;;;;;;;13.52;5.45;;;;;;;16.58;90.40;100684.13;2092554;28;20089;-75
2023/10/03 03:14:14;;;;;;;11.45;5.28;;;;;;;16.56;90.23;100680.97;2099352;28;20104;-75
2023/10/03 03:15:22;;;;;;;13.20;5.50;;;;;;;16.57;90.34;100677.13;2099415;28;20143;-75
2023/10/03 03:16:24;;;;;;;12.25;5.57;;;;;;;16.55;90.13;100684.78;2108192;28;20028;-75
2023/10/03 03:17:26;;;;;;;12.98;5.47;;;;;;;16.56;90.17;100683.69;2107852;28;20899;-74
2023/10/03 03:18:31;;;;;;;14.05;5.47;;;;;;;16.54;90.06;100677.75;2091086;28;20898;-75
2023/10/03 03:19:36;;;;;;;12.60;5.25;;;;;;;16.52;90.15;100674.53;2089393;28;20856;-75
2023/10/03 03:20:42;;;;;;;13.45;5.07;;;;;;;16.49;90.03;100681.44;2091491;28;20140;-75
2023/10/03 03:21:44;;;;;;;12.60;5.15;;;;;;;16.50;90.21;100676.78;2100859;28;20879;-74
2023/10/03 03:22:47;;;;;;;11.27;4.97;;;;;;;16.48;90.42;100673.59;2099231;28;20033;-75
2023/10/03 03:23:56;;;;;;;12.57;5.68;;;;;;;16.45;90.49;100666.88;2099654;28;20025;-75
2023/10/03 03:25:02;;;;;;;13.55;5.25;;;;;;;16.44;90.63;100668.78;2107549;28;20771;-75
2023/10/03 03:26:17;;;;;;;15.45;5.30;;;;;;;16.43;90.49;100656.34;2099562;28;20896;-75
2023/10/03 03:27:26;;;;;;;12.38;5.43;;;;;;;16.42;90.59;100654.75;2110332;28;20021;-75
2023/10/03 03:28:30;;;;;;;12.55;5.20;;;;;;;16.41;90.72;100658.56;2107613;28;20040;-74
2023/10/03 03:29:35;;;;;;;11.80;4.97;;;;;;;16.41;90.84;100647.72;2098950;28;20773;-74
2023/10/03 03:30:37;;;;;;;13.07;5.57;;;;;;;16.42;90.90;100648.50;2100163;28;20020;-74
2023/10/03 03:31:42;;;;;;;13.98;5.93;;;;;;;16.40;91.11;100648.84;2099445;28;20151;-76
2023/10/03 03:32:47;;;;;;;10.93;4.90;;;;;;;16.38;90.90;100645.63;2107554;28;20040;-76
2023/10/03 03:33:51;;;;;;;10.48;4.90;;;;;;;16.38;91.03;100645.63;2099663;28;20029;-74
2023/10/03 03:34:55;;;;;;;11.68;5.13;;;;;;;16.38;91.05;100642.13;2097407;28;20795;-74
2023/10/03 03:36:03;;;;;;;12.02;5.63;;;;;;;16.37;91.01;100644.03;2101037;28;20033;-74
2023/10/03 03:37:23;;;;;;;15.40;6.10;;;;;;;16.37;91.01;100640.53;2108742;28;20036;-74
2023/10/03 03:38:25;;;;;;;12.27;5.10;;;;;;;16.37;91.14;100638.59;2110268;28;20046;-74
2023/10/03 03:39:27;;;;;;;14.38;5.43;;;;;;;16.36;91.01;100636.19;2107656;28;20097;-74
2023/10/03 03:40:34;;;;;;;13.38;5.38;;;;;;;16.37;91.20;100635.88;2107580;28;20036;-74
2023/10/03 03:41:37;;;;;;;12.32;5.43;;;;;;;16.35;91.11;100638.09;2115855;28;20044;-74
2023/10/03 03:42:40;;;;;;;12.52;5.47;;;;;;;16.35;91.02;100637.31;2107863;28;20824;-74
2023/10/03 03:43:42;;;;;;;10.27;5.30;;;;;;;16.33;91.20;100629.50;2107930;28;20980;-74
2023/10/03 03:44:45;;;;;;;14.30;5.93;;;;;;;16.33;91.25;100634.94;2107426;28;20151;-75
2023/10/03 03:45:47;;;;;;;11.63;5.60;;;;;;;16.32;91.25;100627.09;2099032;28;20167;-74
2023/10/03 03:46:52;;;;;;;10.23;5.18;;;;;;;16.30;91.11;100626.59;2107747;28;20143;-74
2023/10/03 03:47:54;;;;;;;10.27;5.03;;;;;;;16.29;91.06;100620.38;2108267;28;20047;-75
2023/10/03 03:48:58;;;;;;;13.25;5.65;;;;;;;16.28;91.34;100621.50;2099157;28;20099;-74
2023/10/03 03:50:03;;;;;;;12.57;5.60;;;;;;;16.26;91.46;100607.44;2106268;28;20079;-74
2023/10/03 03:51:12;;;;;;;14.13;6.05;;;;;;;16.27;91.45;100603.63;2107084;28;20037;-74
2023/10/03 03:52:16;;;;;;;14.73;6.15;;;;;;;16.27;91.72;100610.94;2091369;28;20190;-75
2023/10/03 03:53:21;;;;;;;13.75;5.70;;;;;;;16.28;91.34;100613.34;2091422;28;20040;-74
2023/10/03 03:54:23;;;;;;;14.80;5.53;;;;;;;16.27;91.41;100608.22;2099568;28;20036;-74
2023/10/03 03:55:29;;;;;;;11.30;5.45;;;;;;;16.25;91.52;100616.69;2107311;28;20107;-74
2023/10/03 03:56:33;;;;;;;11.98;4.93;;;;;;;16.24;91.86;100604.25;2107412;28;20025;-75
2023/10/03 03:57:35;;;;;;;16.08;5.75;;;;;;;16.23;91.87;100602.66;2107014;28;20048;-74
2023/10/03 03:58:40;;;;;;;15.80;5.68;;;;;;;16.26;91.90;100602.00;2099355;28;20076;-74
2023/10/03 03:59:42;;;;;;;11.15;4.97;;;;;;;16.26;91.75;100612.88;2107311;28;21260;-75
2023/10/03 04:00:51;;;;;;;13.20;5.38;;;;;;;16.25;91.63;100605.06;2107077;28;20040;-75
2023/10/03 04:01:55;;;;;;;13.30;5.75;;;;;;;16.24;91.74;100598.84;2099221;28;20048;-74
2023/10/03 04:02:57;;;;;;;15.65;5.50;;;;;;;16.24;91.71;100601.56;2091178;28;20042;-74
2023/10/03 04:04:00;;;;;;;14.25;5.03;;;;;;;16.23;91.85;100591.78;2090838;28;20036;-76
2023/10/03 04:05:07;;;;;;;15.27;5.90;;;;;;;16.25;91.69;100596.91;2096853;28;20130;-76
2023/10/03 04:06:15;;;;;;;16.25;5.53;;;;;;;16.24;91.52;100590.69;2107705;28;20029;-76
2023/10/03 04:07:20;;;;;;;13.15;6.10;;;;;;;16.25;91.73;100594.19;2114006;28;20020;-76
2023/10/03 04:08:26;;;;;;;13.45;5.53;;;;;;;16.26;91.61;100590.38;2099864;28;20026;-76
2023/10/03 04:09:28;;;;;;;13.05;5.88;;;;;;;16.24;91.63;100585.28;2082517;28;20025;-76
2023/10/03 04:10:37;;;;;;;10.90;5.07;;;;;;;16.25;91.82;100588.78;2084069;28;20095;-75
2023/10/03 04:11:38;;;;;;;12.20;5.70;;;;;;;16.24;91.49;100582.56;2100150;28;20020;-75
2023/10/03 04:12:43;;;;;;;15.90;5.53;;;;;;;16.26;91.43;100584.94;2098992;28;20041;-75
2023/10/03 04:13:53;;;;;;;13.80;5.80;;;;;;;16.25;91.50;100592.28;2091665;28;20082;-75
2023/10/03 04:14:56;;;;;;;13.00;5.85;;;;;;;16.22;91.60;100588.28;2091582;28;20037;-75
2023/10/03 04:16:02;;;;;;;13.35;5.40;;;;;;;16.22;91.40;100587.50;2082673;28;20150;-75
2023/10/03 04:17:15;;;;;;;12.90;5.97;;;;;;;16.20;91.59;100581.56;2099925;28;20028;-75
2023/10/03 04:18:19;;;;;;;13.55;5.65;;;;;;;16.19;91.72;100586.19;2098731;28;20102;-74
2023/10/03 04:19:26;;;;;;;14.30;5.55;;;;;;;16.21;91.63;100588.63;2092087;28;20026;-75
2023/10/03 04:20:35;;;;;;;12.82;6.03;;;;;;;16.22;91.57;100590.19;2098897;28;20068;-75
2023/10/03 04:21:40;;;;;;;12.70;5.45;;;;;;;16.22;91.63;100591.00;2092658;28;20127;-75
2023/10/03 04:22:42;;;;;;;13.98;5.88;;;;;;;16.24;91.78;100587.19;2099749;28;20073;-75
2023/10/03 04:23:47;;;;;;;12.48;5.20;;;;;;;16.22;91.75;100580.16;2099094;28;20067;-75
2023/10/03 04:24:49;;;;;;;14.48;5.80;;;;;;;16.22;91.56;100585.56;2106979;28;20021;-75
2023/10/03 04:25:51;;;;;;;13.23;5.93;;;;;;;16.19;91.61;100585.41;2107168;28;20028;-75
2023/10/03 04:26:54;;;;;;;16.73;5.70;;;;;;;16.19;91.74;100586.19;2090354;28;20018;-75
2023/10/03 04:27:57;;;;;;;17.38;6.25;;;;;;;16.17;91.80;100587.63;2099145;28;20859;-75
2023/10/03 04:28:58;;;;;;;15.13;6.57;;;;;;;16.15;91.37;100584.44;2098553;28;20151;-75
2023/10/03 04:30:03;;;;;;;20.15;6.75;;;;;;;16.15;91.58;100581.72;2091021;28;20836;-75
2023/10/03 04:31:09;;;;;;;11.32;5.70;;;;;;;16.15;91.81;100579.03;2099219;28;20115;-75
2023/10/03 04:32:10;;;;;;;15.52;5.93;;;;;;;16.15;91.70;100584.44;2107475;28;20017;-75
2023/10/03 04:33:11;;;;;;;13.63;6.43;;;;;;;16.16;91.79;100584.13;2107040;28;20029;-75
2023/10/03 04:34:17;;;;;;;15.55;5.93;;;;;;;16.15;91.60;100579.81;2090158;28;20038;-75
2023/10/03 04:35:18;;;;;;;13.45;6.25;;;;;;;16.17;91.88;100582.19;2088785;28;20835;-75
2023/10/03 04:36:24;;;;;;;13.77;5.80;;;;;;;16.17;91.79;100576.78;2090631;28;20041;-75
2023/10/03 04:37:29;;;;;;;12.80;5.90;;;;;;;16.17;91.86;100577.59;2100724;28;20037;-76
2023/10/03 04:38:31;;;;;;;15.95;6.40;;;;;;;16.18;91.59;100578.41;2106943;28;20149;-75
2023/10/03 04:39:35;;;;;;;12.18;6.30;;;;;;;16.17;91.68;100582.19;2098723;28;20025;-75
2023/10/03 04:40:40;;;;;;;14.10;5.78;;;;;;;16.14;91.51;100577.41;2098890;28;20028;-75
2023/10/03 04:41:45;;;;;;;11.70;5.40;;;;;;;16.13;91.59;100573.09;2083365;28;20046;-76
2023/10/03 04:42:46;;;;;;;12.65;5.80;;;;;;;16.15;91.52;100573.59;2091001;28;20045;-75
2023/10/03 04:43:49;;;;;;;14.68;6.03;;;;;;;16.14;91.73;100574.69;2098386;28;20099;-75
2023/10/03 04:44:51;;;;;;;11.32;5.50;;;;;;;16.14;91.73;100578.22;2105904;28;20041;-74
2023/10/03 04:45:53;;;;;;;13.30;5.70;;;;;;;16.12;91.73;100572.31;2096580;28;20032;-74
2023/10/03 04:46:54;;;;;;;13.32;5.78;;;;;;;16.11;91.54;100568.00;2096703;28;20021;-74
2023/10/03 04:47:56;;;;;;;15.82;6.53;;;;;;;16.09;91.42;100569.44;2097363;28;20028;-74
2023/10/03 04:49:01;;;;;;;16.85;6.47;;;;;;;16.08;91.50;100571.34;2097727;28;20145;-74
2023/10/03 04:50:03;;;;;;;13.93;6.25;;;;;;;16.09;91.69;100561.28;2105337;28;20025;-75
2023/10/03 04:51:04;;;;;;;11.63;5.32;;;;;;;16.08;91.83;100574.06;2098523;28;20130;-74
2023/10/03 04:52:07;;;;;;;17.83;7.47;;;;;;;16.06;91.79;100570.06;2098973;28;20869;-74
2023/10/03 04:53:14;;;;;;;13.35;6.80;;;;;;;16.05;91.61;100563.06;2107189;28;20133;-74
2023/10/03 04:54:16;;;;;;;12.82;6.18;;;;;;;16.04;91.92;100567.66;2092036;28;20025;-74
2023/10/03 04:55:22;;;;;;;13.70;6.25;;;;;;;16.05;91.81;100563.06;2082142;28;20871;-74